Time;durP1;ratioP1;P1;durP2;ratioP2;P2;SDS_P1;SDS_P2;PMS_P1;PMS_P2;Temp;Humidity;BMP_temperature;BMP_pressure;BME280_temperature;BME280_humidity;BME280_pressure;Samples;Min_cycle;Max_cycle;Signal;HPM_P1;HPM_P2
2022/08/08 00:00:48;;;;;;;21.20;9.55;;;;;;;13.41;84.89;102283.66;5028331;28;20116;-72
2022/08/08 00:03:21;;;;;;;22.42;9.88;;;;;;;13.39;84.96;102279.31;5029648;28;20033;-72
2022/08/08 00:06:34;;;;;;;19.42;9.38;;;;;;;13.40;83.44;102286.47;5047350;28;20048;-72
2022/08/08 00:09:05;;;;;;;23.52;10.05;;;;;;;13.32;84.86;102286.03;5027895;28;20496;-72
2022/08/08 00:11:41;;;;;;;24.42;9.57;;;;;;;13.32;84.74;102278.78;5026766;28;20037;-72
2022/08/08 00:14:29;;;;;;;20.80;9.27;;;;;;;13.31;84.24;102286.97;5023945;28;20041;-72
2022/08/08 00:17:18;;;;;;;20.65;8.82;;;;;;;13.27;83.62;102284.47;5025671;28;20045;-72
2022/08/08 00:20:00;;;;;;;21.05;9.55;;;;;;;13.22;84.06;102292.00;5025895;28;20599;-72
2022/08/08 00:22:35;;;;;;;21.00;9.57;;;;;;;13.14;84.25;102283.50;5016749;28;20032;-72
2022/08/08 00:25:06;;;;;;;20.00;9.30;;;;;;;13.12;84.87;102285.44;5026334;28;20378;-72
2022/08/08 00:27:34;;;;;;;21.85;9.82;;;;;;;13.09;84.92;102291.88;5031771;28;20037;-72
2022/08/08 00:30:09;;;;;;;20.60;9.23;;;;;;;13.04;84.91;102291.28;5022538;28;20079;-72
2022/08/08 00:32:48;;;;;;;21.60;8.70;;;;;;;13.05;84.87;102289.47;5022618;28;20041;-72
2022/08/08 00:35:33;;;;;;;20.20;8.88;;;;;;;13.03;84.48;102294.97;5014364;28;20144;-72
2022/08/08 00:38:07;;;;;;;21.15;9.90;;;;;;;13.00;85.22;102295.16;5013396;28;20110;-72
2022/08/08 00:40:47;;;;;;;22.30;9.55;;;;;;;13.02;85.00;102292.34;5059665;28;20103;-72
2022/08/08 00:43:45;;;;;;;22.20;10.32;;;;;;;13.00;85.80;102287.06;5072487;28;20149;-72
2022/08/08 00:46:38;;;;;;;20.80;9.63;;;;;;;12.99;85.38;102293.41;5071972;28;20094;-72
2022/08/08 00:49:39;;;;;;;20.90;8.57;;;;;;;13.00;84.70;102288.88;5071140;28;20086;-72
2022/08/08 00:52:14;;;;;;;22.65;8.93;;;;;;;12.97;85.78;102295.31;5078435;28;20117;-72
2022/08/08 00:55:00;;;;;;;20.35;9.30;;;;;;;12.94;86.48;102285.59;5072928;28;20060;-72
2022/08/08 00:58:09;;;;;;;22.25;9.95;;;;;;;12.98;85.92;102280.00;5072511;28;20031;-72
2022/08/08 01:01:07;;;;;;;20.85;9.20;;;;;;;12.97;85.37;102284.50;5065280;28;20466;-73
2022/08/08 01:03:47;;;;;;;21.73;10.13;;;;;;;12.95;86.00;102283.75;5071946;28;20108;-73
2022/08/08 01:06:37;;;;;;;20.67;10.07;;;;;;;12.94;85.48;102292.81;5071995;28;20024;-73
2022/08/08 01:09:42;;;;;;;23.52;10.32;;;;;;;12.92;85.91;102282.09;5064309;28;20032;-73
2022/08/08 01:12:35;;;;;;;24.15;10.68;;;;;;;12.87;86.40;102284.22;5057759;28;20110;-73
2022/08/08 01:15:31;;;;;;;21.83;10.13;;;;;;;12.90;85.39;102283.19;5070151;28;20115;-73
2022/08/08 01:18:37;;;;;;;20.73;9.63;;;;;;;12.83;85.44;102276.41;5071431;28;20028;-73
2022/08/08 01:21:26;;;;;;;21.95;10.80;;;;;;;12.79;85.60;102281.09;5060105;28;20028;-73
2022/08/08 01:24:33;;;;;;;21.20;10.45;;;;;;;12.77;85.44;102283.91;5068667;28;20036;-73
2022/08/08 01:27:23;;;;;;;21.70;10.65;;;;;;;12.76;86.20;102275.91;5008561;28;20045;-73
2022/08/08 01:30:07;;;;;;;21.98;10.50;;;;;;;12.74;86.47;102273.28;4991585;28;20060;-73
2022/08/08 01:33:22;;;;;;;23.35;10.52;;;;;;;12.73;85.81;102274.25;5008286;28;20050;-73
2022/08/08 01:36:02;;;;;;;22.63;11.55;;;;;;;12.71;86.51;102270.78;5009074;28;20038;-73
2022/08/08 01:38:52;;;;;;;23.10;11.38;;;;;;;12.71;86.47;102275.31;5004271;28;20030;-73
2022/08/08 01:41:30;;;;;;;21.73;11.30;;;;;;;12.68;86.39;102276.38;4985233;28;20413;-73
2022/08/08 01:44:15;;;;;;;23.77;11.50;;;;;;;12.67;86.08;102271.91;5001149;28;20061;-73
2022/08/08 01:46:49;;;;;;;21.98;10.70;;;;;;;12.63;86.95;102269.50;5005584;28;20561;-73
2022/08/08 01:49:36;;;;;;;21.80;10.77;;;;;;;12.65;86.46;102267.56;5005715;28;20041;-73
2022/08/08 01:52:13;;;;;;;20.85;9.50;;;;;;;12.60;87.04;102273.25;5007658;28;20103;-73
2022/08/08 01:54:48;;;;;;;23.67;10.40;;;;;;;12.58;86.62;102269.78;4992361;28;20038;-73
2022/08/08 01:57:31;;;;;;;22.42;11.38;;;;;;;12.54;86.05;102273.59;5008358;28;20050;-73
2022/08/08 02:00:11;;;;;;;24.83;11.18;;;;;;;12.51;86.30;102280.03;5004340;28;20539;-73
2022/08/08 02:02:48;;;;;;;21.58;10.30;;;;;;;12.45;86.36;102283.09;5011587;28;20026;-73
2022/08/08 02:05:36;;;;;;;24.15;10.20;;;;;;;12.46;86.17;102283.97;5069998;28;20046;-73
2022/08/08 02:08:16;;;;;;;24.08;10.77;;;;;;;12.42;86.06;102285.97;5070583;28;20020;-73
2022/08/08 02:11:12;;;;;;;21.73;10.98;;;;;;;12.39;85.81;102280.78;5070663;28;20028;-73
2022/08/08 02:13:50;;;;;;;20.52;10.00;;;;;;;12.31;85.85;102286.59;5068177;28;20443;-73
2022/08/08 02:16:22;;;;;;;23.70;11.15;;;;;;;12.27;85.79;102284.16;5060351;28;20032;-73
2022/08/08 02:19:07;;;;;;;21.90;10.43;;;;;;;12.24;85.78;102279.84;5067487;28;20500;-73
2022/08/08 02:24:57;;;;;;;23.30;11.63;;;;;;;12.21;85.81;102283.56;5072153;28;20071;-73
2022/08/08 02:27:32;;;;;;;23.60;11.45;;;;;;;12.20;86.74;102284.53;5075425;28;20055;-73
2022/08/08 02:30:03;;;;;;;23.00;10.25;;;;;;;12.16;86.37;102280.25;5073482;28;20440;-73
2022/08/08 02:33:00;;;;;;;25.13;11.15;;;;;;;12.15;85.74;102286.63;5069712;28;20028;-73
2022/08/08 02:35:53;;;;;;;22.35;11.38;;;;;;;12.14;86.34;102287.56;5066445;28;20033;-73
2022/08/08 02:38:58;;;;;;;21.05;10.23;;;;;;;12.13;86.15;102283.13;5069613;28;20020;-73
2022/08/08 02:41:35;;;;;;;21.20;10.45;;;;;;;12.09;86.91;102278.88;5074024;28;20024;-73
2022/08/08 02:44:38;;;;;;;24.02;11.30;;;;;;;12.10;86.43;102277.91;5072010;28;20427;-73
2022/08/08 02:47:15;;;;;;;24.38;10.88;;;;;;;12.11;87.36;102274.28;5074923;28;20033;-73
2022/08/08 02:50:23;;;;;;;21.80;11.27;;;;;;;12.10;86.86;102272.53;5058953;28;20735;-73
2022/08/08 02:53:23;;;;;;;23.73;11.77;;;;;;;12.10;86.71;102269.84;5071156;28;20460;-73
2022/08/08 02:56:07;;;;;;;22.83;11.52;;;;;;;12.08;86.88;102271.75;5072416;28;20043;-73
2022/08/08 02:59:43;;;;;;;24.55;11.80;;;;;;;12.06;86.31;102279.03;5069846;28;20543;-73
2022/08/08 03:02:33;;;;;;;22.88;11.48;;;;;;;12.02;87.47;102286.44;5071704;28;20056;-73
2022/08/08 03:05:22;;;;;;;21.30;11.02;;;;;;;12.02;86.98;102288.25;5063798;28;20029;-73
2022/08/08 03:08:09;;;;;;;22.70;11.25;;;;;;;11.97;86.92;102283.13;5069763;28;20032;-73
2022/08/08 03:11:00;;;;;;;21.77;10.10;;;;;;;11.97;86.17;102288.50;5074496;28;20035;-73
2022/08/08 03:13:39;;;;;;;23.02;11.25;;;;;;;11.92;87.00;102284.31;5071889;28;20044;-73
2022/08/08 03:16:35;;;;;;;21.80;10.65;;;;;;;11.89;86.69;102283.53;5073751;28;20028;-73
2022/08/08 03:19:38;;;;;;;23.05;11.90;;;;;;;11.84;86.43;102282.03;5072285;28;20029;-73
2022/08/08 03:22:03;;;;;;;21.55;11.10;;;;;;;11.81;86.67;102280.38;5066025;28;20036;-73
2022/08/08 03:24:29;;;;;;;22.33;11.07;;;;;;;11.78;86.40;102280.56;5072016;28;20039;-73
2022/08/08 03:27:59;;;;;;;23.35;11.85;;;;;;;11.74;85.96;102288.91;5068060;28;20515;-73
2022/08/08 03:30:25;;;;;;;22.10;10.20;;;;;;;11.68;86.55;102292.78;4982047;28;20108;-73
2022/08/08 03:35:38;;;;;;;23.52;11.73;;;;;;;11.60;87.09;102295.91;4991280;28;20029;-73
2022/08/08 03:38:04;;;;;;;23.27;12.02;;;;;;;11.60;87.60;102293.22;4991374;28;20046;-73
2022/08/08 03:40:30;;;;;;;22.73;11.98;;;;;;;11.58;87.46;102292.44;4991029;28;20400;-73
2022/08/08 03:42:55;;;;;;;24.30;12.07;;;;;;;11.61;87.60;102289.59;4987864;28;20073;-73
2022/08/08 03:45:25;;;;;;;24.35;11.30;;;;;;;11.64;87.86;102297.50;4987319;28;20042;-73
2022/08/08 03:47:58;;;;;;;;;;;;;;;11.69;85.71;102298.09;4987912;28;20030;-74
2022/08/08 03:50:25;;;;;;;24.00;10.98;;;;;;;11.65;87.26;102291.13;4988704;28;20017;-73
2022/08/08 03:52:52;;;;;;;21.88;11.07;;;;;;;11.65;87.32;102298.34;4987714;28;20037;-73
2022/08/08 03:55:19;;;;;;;24.25;11.82;;;;;;;11.62;87.54;102293.13;4987410;28;20026;-73
2022/08/08 03:57:46;;;;;;;24.05;11.95;;;;;;;11.58;87.90;102305.91;4987687;28;20518;-73
2022/08/08 04:00:14;;;;;;;23.05;12.07;;;;;;;11.59;88.24;102302.25;4986820;28;20037;-73
2022/08/08 04:02:39;;;;;;;25.23;12.55;;;;;;;11.60;88.29;102305.81;4984780;28;20042;-74
2022/08/08 04:05:05;;;;;;;25.52;13.52;;;;;;;11.62;88.78;102306.59;5053090;28;20098;-74
2022/08/08 04:07:38;;;;;;;24.25;12.98;;;;;;;11.63;88.83;102309.22;5066833;28;20031;-73
2022/08/08 04:10:06;;;;;;;25.45;14.38;;;;;;;11.64;89.43;102320.84;5068054;28;20028;-73
2022/08/08 04:12:32;;;;;;;24.23;12.95;;;;;;;11.65;89.46;102315.38;5065228;28;20033;-73
2022/08/08 04:14:57;;;;;;;24.13;12.80;;;;;;;11.65;88.54;102315.38;5068960;28;20036;-74
2022/08/08 04:17:22;;;;;;;23.52;11.10;;;;;;;11.65;88.19;102314.50;5068473;28;20032;-74
2022/08/08 04:19:48;;;;;;;24.48;11.88;;;;;;;11.66;88.54;102317.13;5069305;28;20029;-74
2022/08/08 04:22:13;;;;;;;26.45;12.20;;;;;;;11.65;88.72;102311.81;5067573;28;20031;-74
2022/08/08 04:24:38;;;;;;;25.58;12.75;;;;;;;11.64;88.49;102312.75;5069849;28;20028;-74
2022/08/08 04:27:05;;;;;;;25.63;12.73;;;;;;;11.65;89.01;102315.38;5070129;28;20040;-75
2022/08/08 04:29:30;;;;;;;24.27;12.80;;;;;;;11.66;89.07;102322.50;5070546;28;20041;-74
2022/08/08 04:31:55;;;;;;;25.38;12.43;;;;;;;11.67;88.17;102313.47;5072035;28;20040;-74
2022/08/08 04:34:21;;;;;;;23.55;12.95;;;;;;;11.69;88.67;102313.41;5072406;28;20033;-74
2022/08/08 04:36:46;;;;;;;27.52;13.10;;;;;;;11.70;89.25;102317.84;5072417;28;20550;-74
2022/08/08 04:39:11;;;;;;;25.48;13.63;;;;;;;11.73;89.24;102317.66;5069124;28;20115;-74
2022/08/08 04:41:36;;;;;;;24.67;11.95;;;;;;;11.79;89.22;102319.16;5052672;28;20025;-74
2022/08/08 04:44:02;;;;;;;24.55;12.00;;;;;;;11.80;89.25;102331.66;5071269;28;20465;-74
2022/08/08 04:46:27;;;;;;;25.52;12.75;;;;;;;11.81;89.98;102334.25;5071839;28;20029;-74
2022/08/08 04:48:52;;;;;;;24.23;13.20;;;;;;;11.84;90.46;102338.63;5071893;28;20108;-74
2022/08/08 04:51:17;;;;;;;26.20;13.52;;;;;;;11.86;90.43;102350.19;5069923;28;20028;-73
2022/08/08 04:53:43;;;;;;;25.85;13.70;;;;;;;11.88;90.39;102342.88;5073041;28;20028;-74
2022/08/08 04:56:08;;;;;;;23.48;12.43;;;;;;;11.93;89.83;102342.63;5067983;28;20016;-73
2022/08/08 04:58:33;;;;;;;26.80;13.32;;;;;;;11.96;90.43;102346.06;5065292;28;20040;-74
2022/08/08 05:00:59;;;;;;;27.65;14.27;;;;;;;11.98;90.29;102348.69;5068013;28;20032;-74
2022/08/08 05:03:24;;;;;;;25.35;12.95;;;;;;;12.00;90.00;102352.16;5071163;28;20020;-74
2022/08/08 05:05:49;;;;;;;25.98;13.00;;;;;;;12.01;89.67;102359.28;5073103;28;20043;-74
2022/08/08 05:08:15;;;;;;;23.92;13.45;;;;;;;12.02;89.85;102358.31;5057010;28;20357;-74
2022/08/08 05:10:40;;;;;;;27.73;14.63;;;;;;;12.06;90.37;102358.09;5072264;28;20025;-73
2022/08/08 05:13:05;;;;;;;25.58;13.50;;;;;;;12.09;90.58;102353.47;5071085;28;20032;-73
2022/08/08 05:15:30;;;;;;;24.98;13.90;;;;;;;12.14;90.91;102354.94;5072325;28;20032;-73
2022/08/08 05:17:56;;;;;;;26.90;14.48;;;;;;;12.17;91.38;102354.78;5071126;28;20518;-73
2022/08/08 05:20:21;;;;;;;28.30;13.88;;;;;;;12.22;91.49;102368.84;5072350;28;20020;-73
2022/08/08 05:22:49;;;;;;;26.50;14.45;;;;;;;12.22;90.87;102362.59;5072350;28;20020;-73
2022/08/08 05:25:14;;;;;;;28.35;14.30;;;;;;;12.26;91.23;102357.94;5071964;28;20091;-73
2022/08/08 05:27:39;;;;;;;27.63;14.45;;;;;;;12.31;91.92;102369.31;5072150;28;20024;-73
2022/08/08 05:30:05;;;;;;;24.27;14.05;;;;;;;12.35;92.48;102368.19;5070557;28;20068;-73
2022/08/08 05:32:31;;;;;;;25.77;13.80;;;;;;;12.44;92.63;102356.84;5072046;28;20498;-73
2022/08/08 05:34:59;;;;;;;25.95;13.38;;;;;;;12.52;93.00;102357.31;5070976;28;20036;-73
2022/08/08 05:37:26;;;;;;;25.20;13.55;;;;;;;12.61;93.44;102366.69;5070887;28;20559;-73
2022/08/08 05:39:54;;;;;;;26.83;14.38;;;;;;;12.70;93.99;102363.44;5071816;28;20051;-73
2022/08/08 05:42:31;;;;;;;26.42;14.25;;;;;;;12.80;94.25;102363.78;5070786;28;20063;-73
2022/08/08 05:44:59;;;;;;;25.95;14.27;;;;;;;12.88;94.55;102358.78;5072053;28;20376;-73
2022/08/08 05:47:25;;;;;;;26.35;13.90;;;;;;;12.97;94.77;102361.91;5070771;28;20028;-73
2022/08/08 05:49:50;;;;;;;26.23;14.10;;;;;;;13.05;94.93;102362.34;5072040;28;20035;-73
2022/08/08 05:52:16;;;;;;;24.67;13.88;;;;;;;13.14;95.17;102366.31;5071949;28;20366;-73
2022/08/08 05:54:41;;;;;;;32.80;14.70;;;;;;;13.21;95.49;102367.69;5069935;28;20037;-73
2022/08/08 05:57:13;;;;;;;27.30;13.23;;;;;;;13.29;95.75;102374.38;5071791;28;20026;-73
2022/08/08 05:59:42;;;;;;;23.67;13.50;;;;;;;13.36;95.99;102372.19;5071914;28;20032;-73
2022/08/08 06:03:09;;;;;;;25.45;14.48;;;;;;;13.43;95.72;102368.16;5071903;28;20024;-73
2022/08/08 06:05:06;;;;;;;25.95;15.02;;;;;;;13.54;96.10;102378.28;5071742;28;20040;-73
2022/08/08 06:07:32;;;;;;;26.30;14.38;;;;;;;13.61;96.84;102376.94;5070674;28;20027;-73
2022/08/08 06:10:01;;;;;;;25.98;13.82;;;;;;;13.69;96.39;102373.78;5071746;28;20033;-73
2022/08/08 06:12:27;;;;;;;24.83;13.63;;;;;;;13.76;96.23;102376.97;5071775;28;20032;-74
2022/08/08 06:14:53;;;;;;;23.95;13.07;;;;;;;13.83;96.31;102377.47;5070368;28;20391;-74
2022/08/08 06:17:20;;;;;;;27.40;13.65;;;;;;;13.91;95.82;102389.53;5070362;28;20029;-74
2022/08/08 06:19:47;;;;;;;26.33;13.75;;;;;;;13.99;95.90;102384.50;5070501;28;20043;-74
2022/08/08 06:22:12;;;;;;;26.65;13.77;;;;;;;14.06;95.50;102384.13;5071790;28;20105;-74
2022/08/08 06:24:37;;;;;;;26.98;14.18;;;;;;;14.14;95.54;102387.19;5066441;28;20538;-74
2022/08/08 06:27:05;;;;;;;24.70;13.27;;;;;;;14.19;94.88;102387.78;5056824;28;20033;-74
2022/08/08 06:29:43;;;;;;;23.65;13.50;;;;;;;14.28;95.15;102387.16;5068344;28;20049;-74
2022/08/08 06:32:14;;;;;;;27.15;13.05;;;;;;;14.36;95.02;102400.19;5067695;28;20056;-74
2022/08/08 06:34:45;;;;;;;23.58;12.63;;;;;;;14.45;94.87;102404.13;5066274;28;20067;-74
2022/08/08 06:37:12;;;;;;;25.45;13.10;;;;;;;14.53;94.23;102406.38;5068629;28;20021;-74
2022/08/08 06:39:42;;;;;;;24.42;11.90;;;;;;;14.60;94.43;102402.28;5067814;28;20074;-74
2022/08/08 06:42:11;;;;;;;;;;;;;;;14.67;92.55;102403.63;5070918;28;20052;-74
2022/08/08 06:44:39;;;;;;;23.38;11.32;;;;;;;14.75;94.25;102400.44;5071346;28;19909;-74
2022/08/08 06:47:05;;;;;;;22.17;10.82;;;;;;;14.80;93.10;102401.88;5070134;28;20032;-74
2022/08/08 06:49:31;;;;;;;24.75;12.00;;;;;;;14.85;91.94;102405.13;5071639;28;20024;-74
2022/08/08 06:51:57;;;;;;;23.42;9.85;;;;;;;14.93;92.19;102403.75;5071326;28;20036;-74
2022/08/08 06:54:24;;;;;;;21.02;10.65;;;;;;;14.99;91.00;102401.50;5071485;28;20508;-74
2022/08/08 06:56:50;;;;;;;20.60;8.63;;;;;;;15.03;89.24;102405.72;5071303;28;20031;-74
2022/08/08 06:59:16;;;;;;;24.98;11.02;;;;;;;15.14;90.81;102406.84;5070036;28;20029;-74
2022/08/08 07:01:47;;;;;;;20.15;9.63;;;;;;;15.21;89.34;102419.00;5071049;28;20028;-74
2022/08/08 07:04:21;;;;;;;27.08;9.40;;;;;;;15.26;88.65;102408.72;5070111;28;20111;-74
2022/08/08 07:06:54;;;;;;;23.73;9.90;;;;;;;15.30;88.16;102412.97;5071808;28;20029;-74
2022/08/08 07:09:20;;;;;;;22.95;11.30;;;;;;;15.40;89.67;102417.75;5073429;28;20024;-74
2022/08/08 07:11:49;;;;;;;20.20;9.38;;;;;;;15.47;88.15;102409.06;5074478;28;20103;-74
2022/08/08 07:14:22;;;;;;;20.88;8.25;;;;;;;15.50;83.85;102408.00;5073486;28;20021;-74
2022/08/08 07:17:05;;;;;;;21.27;8.45;;;;;;;15.59;87.95;102412.78;5072710;28;20472;-74
2022/08/08 07:19:39;;;;;;;19.40;8.60;;;;;;;15.65;87.13;102415.06;5074330;28;20040;-74
2022/08/08 07:22:07;;;;;;;22.50;8.82;;;;;;;15.72;85.22;102418.22;5074537;28;20074;-74
2022/08/08 07:24:41;;;;;;;18.10;7.07;;;;;;;15.78;83.59;102422.34;5074594;28;20468;-74
2022/08/08 07:27:11;;;;;;;19.33;7.22;;;;;;;15.85;82.44;102429.09;5074522;28;20025;-74
2022/08/08 07:29:37;;;;;;;18.95;7.07;;;;;;;15.92;83.61;102422.25;5073035;28;20515;-74
2022/08/08 07:32:04;;;;;;;19.65;6.72;;;;;;;15.96;81.67;102415.66;5074500;28;20032;-74
2022/08/08 07:34:32;;;;;;;18.70;6.00;;;;;;;16.04;83.59;102418.66;5073058;28;20032;-74
2022/08/08 07:37:00;;;;;;;13.93;4.80;;;;;;;16.05;78.99;102414.97;5073149;28;20020;-74
2022/08/08 07:39:29;;;;;;;16.45;5.88;;;;;;;16.17;82.43;102417.78;5074251;28;20025;-74
2022/08/08 07:41:54;;;;;;;17.05;5.45;;;;;;;16.24;82.13;102425.38;5074094;28;20027;-74
2022/08/08 07:44:21;;;;;;;17.85;5.05;;;;;;;16.31;79.30;102428.53;5072966;28;20028;-74
2022/08/08 07:46:46;;;;;;;16.13;5.47;;;;;;;16.39;80.42;102415.25;5072764;28;20028;-74
2022/08/08 07:49:12;;;;;;;16.33;4.57;;;;;;;16.41;77.77;102424.16;5068395;28;20498;-74
2022/08/08 07:51:39;;;;;;;13.32;4.50;;;;;;;16.50;80.18;102419.91;5071689;28;20020;-74
2022/08/08 07:54:13;;;;;;;18.98;5.28;;;;;;;16.51;75.31;102428.91;5068482;28;20033;-74
2022/08/08 07:56:58;;;;;;;16.20;5.15;;;;;;;16.62;79.27;102428.09;5069112;28;20384;-74
2022/08/08 07:59:26;;;;;;;14.75;5.13;;;;;;;16.73;79.03;102433.59;5073291;28;20028;-74
2022/08/08 08:01:56;;;;;;;17.75;5.53;;;;;;;16.82;78.92;102440.19;5072408;28;20156;-74
2022/08/08 08:04:28;;;;;;;11.77;4.00;;;;;;;16.84;76.72;102438.22;5073865;28;20024;-74
2022/08/08 08:06:57;;;;;;;14.15;5.07;;;;;;;16.96;78.65;102442.78;5072589;28;20054;-74
2022/08/08 08:09:25;;;;;;;16.60;4.80;;;;;;;16.97;76.24;102436.38;5073708;28;20116;-74
2022/08/08 08:11:50;;;;;;;17.95;5.13;;;;;;;17.06;77.83;102442.97;5072240;28;20055;-75
2022/08/08 08:14:18;;;;;;;16.40;4.57;;;;;;;17.12;78.02;102454.22;5073579;28;20071;-75
2022/08/08 08:16:46;;;;;;;11.60;4.60;;;;;;;17.18;77.12;102442.03;5072197;28;20028;-75
2022/08/08 08:19:12;;;;;;;15.13;5.05;;;;;;;17.27;76.72;102444.03;5073254;28;20020;-75
2022/08/08 08:21:43;;;;;;;13.43;4.53;;;;;;;17.36;77.28;102444.31;5073344;28;20055;-75
2022/08/08 08:24:09;;;;;;;17.25;5.00;;;;;;;17.39;76.03;102447.66;5073479;28;20023;-75
2022/08/08 08:26:34;;;;;;;9.77;3.70;;;;;;;17.49;77.34;102444.25;5073144;28;20392;-75
2022/08/08 08:29:00;;;;;;;12.98;4.78;;;;;;;17.51;76.48;102444.97;5073673;28;20472;-75
2022/08/08 08:31:25;;;;;;;11.35;3.83;;;;;;;17.56;75.82;102450.94;5071741;28;20398;-75
2022/08/08 08:33:51;;;;;;;10.75;3.60;;;;;;;17.63;73.37;102449.47;5073108;28;20036;-75
2022/08/08 08:36:20;;;;;;;11.25;3.67;;;;;;;17.73;73.73;102446.88;5073256;28;20491;-75
2022/08/08 08:38:45;;;;;;;11.20;3.72;;;;;;;17.74;72.84;102457.63;5073191;28;20016;-75
2022/08/08 08:41:11;;;;;;;12.77;3.28;;;;;;;17.76;72.70;102447.53;5072937;28;20097;-75
2022/08/08 08:43:39;;;;;;;12.15;3.85;;;;;;;17.82;72.68;102460.63;5073000;28;20443;-75
2022/08/08 08:46:08;;;;;;;15.38;4.38;;;;;;;17.88;72.06;102456.56;5071622;28;20122;-75
2022/08/08 08:48:34;;;;;;;14.88;4.57;;;;;;;17.95;71.47;102456.97;5071556;28;20025;-75
2022/08/08 08:51:01;;;;;;;8.93;3.35;;;;;;;18.03;72.28;102459.97;5071585;28;20029;-75
2022/08/08 08:53:26;;;;;;;12.90;3.70;;;;;;;18.04;70.77;102456.25;5071530;28;20098;-75
2022/08/08 08:55:55;;;;;;;9.40;3.63;;;;;;;18.07;72.34;102460.56;5072681;28;20083;-75
2022/08/08 08:58:41;;;;;;;13.15;3.47;;;;;;;18.15;70.17;102464.41;5072750;28;20044;-75
2022/08/08 09:01:08;;;;;;;12.40;3.63;;;;;;;18.25;69.35;102455.53;5072487;28;20040;-75
2022/08/08 09:03:34;;;;;;;12.52;3.55;;;;;;;18.34;69.32;102457.50;5072657;28;20448;-75
2022/08/08 09:06:00;;;;;;;10.65;3.42;;;;;;;18.39;67.89;102462.56;5071321;28;20056;-75
2022/08/08 09:08:27;;;;;;;9.63;3.35;;;;;;;18.46;68.02;102459.22;5070962;28;20031;-75
2022/08/08 09:10:54;;;;;;;11.73;3.80;;;;;;;18.51;68.46;102459.72;5071217;28;20503;-75
2022/08/08 09:13:20;;;;;;;11.77;3.60;;;;;;;18.54;68.69;102461.31;5072391;28;20365;-75
2022/08/08 09:15:45;;;;;;;14.07;3.25;;;;;;;18.61;67.15;102465.28;5072377;28;20408;-75
2022/08/08 09:18:11;;;;;;;11.18;3.30;;;;;;;18.69;66.61;102464.63;5072387;28;20020;-75
2022/08/08 09:20:37;;;;;;;15.65;3.90;;;;;;;18.75;65.75;102466.84;5072406;28;20036;-75
2022/08/08 09:23:03;;;;;;;8.57;3.05;;;;;;;18.82;66.26;102459.91;5072382;28;20051;-75
2022/08/08 09:25:28;;;;;;;7.05;3.03;;;;;;;18.84;65.89;102466.09;5070914;28;20073;-75
2022/08/08 09:27:53;;;;;;;12.27;3.53;;;;;;;18.89;67.53;102462.13;5072280;28;20058;-75
2022/08/08 09:30:19;;;;;;;11.90;3.17;;;;;;;18.91;67.36;102471.94;5071102;28;20047;-75
2022/08/08 09:32:48;;;;;;;7.50;3.17;;;;;;;18.97;64.40;102470.56;5072151;28;20434;-75
2022/08/08 09:35:19;;;;;;;10.80;3.10;;;;;;;18.99;65.23;102464.00;5070852;28;20438;-75
2022/08/08 09:37:48;;;;;;;16.77;3.97;;;;;;;19.00;67.28;102465.69;5072259;28;20471;-75
2022/08/08 09:40:19;;;;;;;12.38;3.15;;;;;;;19.04;67.47;102466.31;5072136;28;20024;-75
2022/08/08 09:42:53;;;;;;;6.95;2.97;;;;;;;19.05;64.94;102468.06;5072126;28;20442;-75
2022/08/08 09:45:50;;;;;;;11.88;3.40;;;;;;;19.11;66.96;102459.38;5072493;28;20020;-75
2022/08/08 09:48:16;;;;;;;7.55;2.88;;;;;;;19.19;66.96;102458.72;5060925;28;20037;-75
2022/08/08 09:50:44;;;;;;;8.95;3.20;;;;;;;19.28;65.30;102451.63;5070683;28;20024;-75
2022/08/08 09:53:12;;;;;;;10.48;3.25;;;;;;;19.39;66.58;102459.75;5072169;28;20391;-75
2022/08/08 09:55:38;;;;;;;7.00;3.20;;;;;;;19.41;67.36;102456.88;5070705;28;20063;-75
2022/08/08 09:58:07;;;;;;;4.55;2.55;;;;;;;19.43;67.34;102453.03;5070471;28;20822;-75
2022/08/08 10:00:35;;;;;;;9.57;3.13;;;;;;;19.53;65.98;102453.09;5070462;28;20822;-75
2022/08/08 10:03:02;;;;;;;9.30;3.05;;;;;;;19.58;66.16;102460.88;5070823;28;20449;-75
2022/08/08 10:05:36;;;;;;;9.82;3.22;;;;;;;19.56;64.98;102461.88;5072218;28;20029;-75
2022/08/08 10:08:03;;;;;;;5.72;2.75;;;;;;;19.56;65.06;102467.34;5070698;28;20028;-75
2022/08/08 10:10:30;;;;;;;8.80;3.22;;;;;;;19.56;63.72;102471.91;5071799;28;20108;-75
2022/08/08 10:12:56;;;;;;;14.50;3.60;;;;;;;19.56;64.75;102470.06;5071698;28;20075;-75
2022/08/08 10:15:23;;;;;;;7.05;2.90;;;;;;;19.52;64.35;102474.06;5070471;28;20020;-75
2022/08/08 10:17:50;;;;;;;10.20;3.53;;;;;;;19.54;63.32;102463.88;5071657;28;20098;-75
2022/08/08 10:20:16;;;;;;;9.73;3.03;;;;;;;19.56;65.63;102459.16;5070449;28;20024;-75
2022/08/08 10:22:59;;;;;;;9.00;2.92;;;;;;;19.66;67.32;102459.22;5071814;28;20016;-75
2022/08/08 10:25:26;;;;;;;8.70;2.92;;;;;;;19.72;66.39;102460.53;5071577;28;20082;-75
2022/08/08 10:27:53;;;;;;;5.40;2.78;;;;;;;19.88;65.02;102454.66;5071740;28;20028;-75
2022/08/08 10:30:20;;;;;;;8.95;3.15;;;;;;;19.92;63.77;102447.94;5069936;28;20403;-75
2022/08/08 10:32:54;;;;;;;7.35;2.90;;;;;;;19.98;65.28;102450.13;5071474;28;20027;-75
2022/08/08 10:35:22;;;;;;;5.75;2.90;;;;;;;19.98;64.40;102454.72;5071547;28;20039;-75
2022/08/08 10:37:59;;;;;;;10.18;3.33;;;;;;;20.07;63.58;102453.91;5071586;28;20443;-75
2022/08/08 10:40:28;;;;;;;11.63;3.47;;;;;;;20.16;63.01;102455.81;5071466;28;20395;-75
2022/08/08 10:42:56;;;;;;;4.80;2.60;;;;;;;20.31;60.13;102459.06;5075395;28;20024;-75
2022/08/08 10:45:22;;;;;;;6.40;2.72;;;;;;;20.39;59.86;102453.75;5075176;28;20491;-75
2022/08/08 10:47:52;;;;;;;5.88;2.47;;;;;;;20.51;60.45;102446.31;5073926;28;20029;-75
2022/08/08 10:50:18;;;;;;;5.90;3.05;;;;;;;20.60;59.73;102439.13;5075108;28;20411;-75
2022/08/08 10:52:43;;;;;;;6.97;2.90;;;;;;;20.62;61.05;102448.06;5073858;28;20107;-75
2022/08/08 10:55:16;;;;;;;5.57;2.45;;;;;;;20.62;61.35;102441.75;5075006;28;20032;-75
2022/08/08 10:57:47;;;;;;;8.65;3.00;;;;;;;20.79;61.27;102449.28;5075139;28;20058;-75
2022/08/08 11:00:18;;;;;;;5.93;2.58;;;;;;;20.81;62.83;102443.72;5074877;28;20040;-75
2022/08/08 11:02:44;;;;;;;6.07;2.55;;;;;;;20.87;60.35;102438.53;5055248;28;20473;-75
2022/08/08 11:05:11;;;;;;;8.65;2.67;;;;;;;20.91;59.10;102447.31;5055057;28;20032;-75
2022/08/08 11:07:41;;;;;;;6.97;2.50;;;;;;;20.91;58.37;102442.72;5053682;28;20021;-75
2022/08/08 11:10:12;;;;;;;5.78;2.67;;;;;;;20.94;58.39;102447.03;5071721;28;20062;-75
2022/08/08 11:13:00;;;;;;;6.60;2.80;;;;;;;20.95;59.72;102444.16;5074787;28;20028;-75
2022/08/08 11:15:28;;;;;;;7.45;2.80;;;;;;;20.98;56.87;102442.97;5074652;28;20515;-75
2022/08/08 11:17:55;;;;;;;5.90;2.40;;;;;;;21.04;56.36;102444.28;5073383;28;20021;-75
2022/08/08 11:20:24;;;;;;;8.32;2.85;;;;;;;21.06;55.41;102442.28;5073262;28;20028;-75
2022/08/08 11:22:54;;;;;;;10.13;2.97;;;;;;;21.10;57.71;102441.84;5073451;28;20436;-75
2022/08/08 11:25:23;;;;;;;9.23;2.70;;;;;;;21.16;58.76;102434.97;5074614;28;20051;-75
2022/08/08 11:27:53;;;;;;;9.95;2.65;;;;;;;21.21;57.07;102431.78;5074425;28;20031;-75
2022/08/08 11:30:22;;;;;;;5.82;2.70;;;;;;;21.26;56.16;102430.34;5074159;28;20052;-75
2022/08/08 11:32:54;;;;;;;7.50;2.60;;;;;;;21.32;57.82;102436.22;5074281;28;20043;-75
2022/08/08 11:35:21;;;;;;;4.72;2.30;;;;;;;21.37;54.34;102433.94;5074620;28;20051;-75
2022/08/08 11:37:46;;;;;;;4.78;2.45;;;;;;;21.39;56.70;102429.19;5073183;28;20123;-75
2022/08/08 11:40:13;;;;;;;9.05;2.80;;;;;;;21.41;55.30;102424.44;5073015;28;20108;-75
2022/08/08 11:42:40;;;;;;;4.97;2.20;;;;;;;21.41;54.32;102433.50;5073076;28;20020;-75
2022/08/08 11:45:07;;;;;;;5.93;2.30;;;;;;;21.38;54.79;102432.94;5074221;28;20099;-75
2022/08/08 11:47:34;;;;;;;8.32;2.63;;;;;;;21.34;56.21;102429.63;5074252;28;20074;-75